createdAt,value
2022-07-29T00:00:52.229Z,96147.22
2022-07-29T00:03:18.852Z,96154.38
2022-07-29T00:05:45.342Z,96149.03
2022-07-29T00:08:12.708Z,96146.41
2022-07-29T00:10:39.196Z,96144.19
2022-07-29T00:13:05.551Z,96148.47
2022-07-29T00:15:31.909Z,96146.25
2022-07-29T00:17:58.272Z,96142.66
2022-07-29T00:20:24.641Z,96142.75
2022-07-29T00:22:51.002Z,96148.13
2022-07-29T00:25:17.370Z,96150.31
2022-07-29T00:27:43.724Z,96151.34
2022-07-29T00:30:10.111Z,96154.59
2022-07-29T00:32:36.469Z,96145.63
2022-07-29T00:35:02.825Z,96159.97
2022-07-29T00:37:29.198Z,96162.03
2022-07-29T00:39:55.561Z,96154.19
2022-07-29T00:42:21.914Z,96156.88
2022-07-29T00:44:48.289Z,96161.13
2022-07-29T00:47:14.641Z,96159.53
2022-07-29T00:49:41.001Z,96163.34
2022-07-29T00:52:07.358Z,96156.41
2022-07-29T00:54:33.742Z,96151.13
2022-07-29T00:57:00.115Z,96158.47
2022-07-29T00:59:26.489Z,96153.22
2022-07-29T01:02:01.384Z,96156.03
2022-07-29T01:04:27.767Z,96159.34
2022-07-29T01:06:54.145Z,96155.25
2022-07-29T01:09:34.354Z,96161.59
2022-07-29T01:12:06.851Z,96158.56
2022-07-29T01:14:34.814Z,96161.41
2022-07-29T01:17:01.187Z,96158.56
2022-07-29T01:19:27.549Z,96146.78
2022-07-29T01:21:53.900Z,96156.84
2022-07-29T01:24:20.261Z,96157.72
2022-07-29T01:26:46.631Z,96152.16
2022-07-29T01:29:13.113Z,96152.25
2022-07-29T01:31:40.346Z,96151.63
2022-07-29T01:34:25.211Z,96152.88
2022-07-29T01:36:51.566Z,96151.97
2022-07-29T01:39:17.934Z,96150.22
2022-07-29T01:41:44.296Z,96152.88
2022-07-29T01:44:10.654Z,96163.28
2022-07-29T01:46:37.100Z,96164.09
2022-07-29T01:49:03.658Z,96151.13
2022-07-29T01:51:30.128Z,96151.91
2022-07-29T01:53:56.493Z,96151.91
2022-07-29T01:56:22.861Z,96159.66
2022-07-29T01:58:49.216Z,96153.34
2022-07-29T02:01:15.572Z,96149.63
2022-07-29T02:03:41.926Z,96157.72
2022-07-29T02:06:08.367Z,96160.06
2022-07-29T02:08:34.741Z,96154.97
2022-07-29T02:11:01.097Z,96158.63
2022-07-29T02:13:27.458Z,96152.75
2022-07-29T02:15:53.855Z,96161.69
2022-07-29T02:18:20.236Z,96165.06
2022-07-29T02:20:46.605Z,96160.19
2022-07-29T02:23:12.964Z,96165.50
2022-07-29T02:25:39.320Z,96152.78
2022-07-29T02:28:06.429Z,96153.81
2022-07-29T02:30:32.794Z,96149.13
2022-07-29T02:32:59.174Z,96151.47
2022-07-29T02:35:25.559Z,96156.22
2022-07-29T02:37:51.921Z,96157.72
2022-07-29T02:40:18.269Z,96154.19
2022-07-29T02:42:44.623Z,96152.25
2022-07-29T02:45:11.002Z,96155.94
2022-07-29T02:47:41.434Z,96162.69
2022-07-29T02:50:08.381Z,96164.56
2022-07-29T02:52:34.746Z,96161.69
2022-07-29T02:55:01.111Z,96164.38
2022-07-29T02:57:27.478Z,96154.84
2022-07-29T02:59:53.832Z,96169.34
2022-07-29T03:02:20.338Z,96164.63
2022-07-29T03:04:46.804Z,96163.56
2022-07-29T03:07:13.206Z,96166.28
2022-07-29T03:09:39.582Z,96176.22
2022-07-29T03:12:05.944Z,96167.25
2022-07-29T03:14:32.314Z,96169.34
2022-07-29T03:16:58.669Z,96171.66
2022-07-29T03:19:25.038Z,96167.47
2022-07-29T03:21:51.400Z,96161.47
2022-07-29T03:24:17.881Z,96163.59
2022-07-29T03:26:44.492Z,96157.84
2022-07-29T03:29:10.874Z,96153.75
2022-07-29T03:31:40.467Z,96156.41
2022-07-29T03:34:10.134Z,96164.38
2022-07-29T03:36:36.491Z,96158.38
2022-07-29T03:39:02.859Z,96167.78
2022-07-29T03:41:29.225Z,96167.78
2022-07-29T03:43:55.590Z,96171.09
2022-07-29T03:46:22.017Z,96166.03
2022-07-29T03:48:48.459Z,96162.59
2022-07-29T03:51:14.850Z,96168.44
2022-07-29T03:53:41.218Z,96167.97
2022-07-29T03:56:07.591Z,96175.25
2022-07-29T03:58:33.952Z,96177.94
2022-07-29T04:01:00.332Z,96176.97
2022-07-29T04:03:26.791Z,96182.34
2022-07-29T04:05:53.218Z,96182.97
2022-07-29T04:08:19.583Z,96185.50
2022-07-29T04:10:45.945Z,96188.78
2022-07-29T04:13:12.307Z,96192.44
2022-07-29T04:15:38.712Z,96180.78
2022-07-29T04:18:05.101Z,96179.03
2022-07-29T04:20:31.473Z,96182.63
2022-07-29T04:22:57.828Z,96177.63
2022-07-29T04:25:24.203Z,96185.50
2022-07-29T04:27:50.569Z,96184.53
2022-07-29T04:30:16.941Z,96185.38
2022-07-29T04:32:43.299Z,96182.06
2022-07-29T04:35:09.664Z,96189.28
2022-07-29T04:37:36.024Z,96193.28
2022-07-29T04:40:02.397Z,96195.28
2022-07-29T04:42:29.244Z,96200.84
2022-07-29T04:44:56.011Z,96202.25
2022-07-29T04:47:22.418Z,96200.00
2022-07-29T04:49:48.782Z,96195.50
2022-07-29T04:52:15.136Z,96207.56
2022-07-29T04:54:41.484Z,96218.44
2022-07-29T04:57:07.858Z,96215.91
2022-07-29T04:59:34.228Z,96219.00
2022-07-29T05:02:00.624Z,96221.66
2022-07-29T05:04:27.031Z,96220.72
2022-07-29T05:06:53.396Z,96223.91
2022-07-29T05:09:19.797Z,96226.84
2022-07-29T05:11:46.179Z,96223.50
2022-07-29T05:14:12.739Z,96224.38
2022-07-29T05:16:39.283Z,96232.91
2022-07-29T05:19:06.463Z,96240.34
2022-07-29T05:21:34.982Z,96238.91
2022-07-29T05:24:01.349Z,96236.69
2022-07-29T05:26:27.716Z,96245.31
2022-07-29T05:28:54.082Z,96236.59
2022-07-29T05:31:20.500Z,96245.66
2022-07-29T05:33:46.905Z,96241.22
2022-07-29T05:36:13.277Z,96232.41
2022-07-29T05:38:39.647Z,96235.69
2022-07-29T05:41:06.055Z,96241.09
2022-07-29T05:43:32.489Z,96242.53
2022-07-29T05:45:59.010Z,96241.47
2022-07-29T05:48:25.505Z,96244.63
2022-07-29T05:50:51.883Z,96249.44
2022-07-29T05:53:19.651Z,96246.44
2022-07-29T05:55:46.598Z,96249.78
2022-07-29T05:58:12.976Z,96252.28
2022-07-29T06:00:39.329Z,96247.56
2022-07-29T06:03:05.694Z,96255.47
2022-07-29T06:05:32.053Z,96256.41
2022-07-29T06:07:58.416Z,96261.13
2022-07-29T06:10:26.999Z,96251.22
2022-07-29T06:12:53.548Z,96256.75
2022-07-29T06:15:19.905Z,96261.47
2022-07-29T06:17:59.328Z,96258.78
2022-07-29T06:20:27.433Z,96264.13
2022-07-29T06:22:53.811Z,96257.47
2022-07-29T06:25:20.171Z,96258.31
2022-07-29T06:27:46.533Z,96266.03
2022-07-29T06:30:12.909Z,96267.25
2022-07-29T06:32:43.006Z,96263.91
2022-07-29T06:35:39.510Z,96262.00
2022-07-29T06:37:56.164Z,96265.84
2022-07-29T06:40:26.189Z,96274.69
2022-07-29T06:42:52.592Z,96272.16
2022-07-29T06:45:18.957Z,96272.28
2022-07-29T06:47:45.315Z,96272.00
2022-07-29T06:50:13.134Z,96280.03
2022-07-29T06:52:39.503Z,96280.81
2022-07-29T06:55:05.866Z,96277.53
2022-07-29T06:57:32.423Z,96280.09
2022-07-29T06:59:58.785Z,96282.13
2022-07-29T07:02:25.178Z,96277.19
2022-07-29T07:04:51.557Z,96284.13
2022-07-29T07:07:17.918Z,96287.28
2022-07-29T07:09:44.393Z,96284.31
2022-07-29T07:12:10.757Z,96290.13
2022-07-29T07:14:37.112Z,96288.88
2022-07-29T07:17:03.565Z,96283.03
2022-07-29T07:19:29.964Z,96283.16
2022-07-29T07:21:56.329Z,96272.91
2022-07-29T07:24:22.705Z,96292.16
2022-07-29T07:26:49.084Z,96289.09
2022-07-29T07:29:15.450Z,96289.41
2022-07-29T07:31:41.866Z,96298.72
2022-07-29T07:34:08.253Z,96297.75
2022-07-29T07:36:34.611Z,96307.06
2022-07-29T07:39:00.973Z,96302.16
2022-07-29T07:41:27.328Z,96304.22
2022-07-29T07:43:58.910Z,96297.28
2022-07-29T07:46:25.296Z,96295.09
2022-07-29T07:48:51.749Z,96299.50
2022-07-29T07:51:18.163Z,96299.94
2022-07-29T07:53:44.540Z,96311.94
2022-07-29T07:56:12.559Z,96312.72
2022-07-29T07:58:39.340Z,96310.38
2022-07-29T08:01:05.807Z,96309.25
2022-07-29T08:03:32.291Z,96304.38
2022-07-29T08:05:58.663Z,96303.09
2022-07-29T08:08:25.038Z,96299.78
2022-07-29T08:10:51.402Z,96298.84
2022-07-29T08:13:17.779Z,96296.00
2022-07-29T08:15:44.136Z,96300.41
2022-07-29T08:18:10.622Z,96298.69
2022-07-29T08:20:37.091Z,96303.19
2022-07-29T08:23:03.465Z,96299.59
2022-07-29T08:25:29.873Z,96308.00
2022-07-29T08:27:56.521Z,96305.13
2022-07-29T08:30:22.913Z,96299.44
2022-07-29T08:32:54.194Z,96313.66
2022-07-29T08:35:21.327Z,96312.22
2022-07-29T08:37:47.864Z,96318.84
2022-07-29T08:40:14.284Z,96322.50
2022-07-29T08:42:40.669Z,96319.97
2022-07-29T08:45:07.027Z,96314.41
2022-07-29T08:47:33.397Z,96320.94
2022-07-29T08:49:59.807Z,96313.94
2022-07-29T08:52:26.160Z,96311.25
2022-07-29T08:54:52.529Z,96309.22
2022-07-29T08:57:18.887Z,96307.78
2022-07-29T08:59:46.585Z,96310.00
2022-07-29T09:02:13.553Z,96307.16
2022-07-29T09:04:39.956Z,96314.41
2022-07-29T09:07:06.335Z,96309.50
2022-07-29T09:09:32.703Z,96318.69
2022-07-29T09:11:59.069Z,96329.41
2022-07-29T09:14:25.434Z,96326.88
2022-07-29T09:16:53.483Z,96327.69
2022-07-29T09:19:20.183Z,96327.81
2022-07-29T09:21:46.615Z,96324.38
2022-07-29T09:24:12.970Z,96321.38
2022-07-29T09:26:39.346Z,96326.50
2022-07-29T09:29:05.718Z,96324.66
2022-07-29T09:31:32.146Z,96327.53
2022-07-29T09:33:58.523Z,96322.94
2022-07-29T09:36:24.904Z,96323.38
2022-07-29T09:38:51.290Z,96325.94
2022-07-29T09:41:17.721Z,96333.97
2022-07-29T09:43:44.083Z,96333.81
2022-07-29T09:46:12.277Z,96341.03
2022-07-29T09:48:38.887Z,96335.03
2022-07-29T09:51:05.280Z,96329.41
2022-07-29T09:53:31.657Z,96328.28
2022-07-29T09:55:58.036Z,96339.53
2022-07-29T09:58:24.390Z,96337.25
2022-07-29T10:00:50.841Z,96336.59
2022-07-29T10:03:17.348Z,96335.38
2022-07-29T10:05:43.724Z,96336.31
2022-07-29T10:08:10.088Z,96333.59
2022-07-29T10:10:36.460Z,96336.16
2022-07-29T10:13:07.221Z,96338.53
2022-07-29T10:15:35.188Z,96332.81
2022-07-29T10:18:01.591Z,96329.53
2022-07-29T10:20:27.944Z,96331.59
2022-07-29T10:22:54.554Z,96329.81
2022-07-29T10:25:21.027Z,96328.44
2022-07-29T10:27:47.492Z,96330.00
2022-07-29T10:30:13.901Z,96334.13
2022-07-29T10:32:40.291Z,96330.00
2022-07-29T10:35:06.656Z,96335.38
2022-07-29T10:37:35.986Z,96336.59
2022-07-29T10:40:02.661Z,96334.63
2022-07-29T10:42:33.942Z,96332.41
2022-07-29T10:45:01.009Z,96342.00
2022-07-29T10:47:27.368Z,96347.53
2022-07-29T10:49:53.772Z,96353.69
2022-07-29T10:52:20.181Z,96365.97
2022-07-29T10:54:53.039Z,96373.06
2022-07-29T10:57:19.408Z,96384.63
2022-07-29T10:59:47.146Z,96389.03
2022-07-29T11:02:36.438Z,96400.38
2022-07-29T11:04:59.873Z,96429.53
2022-07-29T11:07:26.271Z,96449.25
2022-07-29T11:10:12.258Z,96453.97
2022-07-29T11:12:40.322Z,96464.69
2022-07-29T11:15:06.685Z,96463.75
2022-07-29T11:17:47.127Z,96465.63
2022-07-29T11:20:18.557Z,96473.84
2022-07-29T11:22:47.293Z,96479.84
2022-07-29T11:25:13.789Z,96476.81
2022-07-29T11:27:43.232Z,96472.25
2022-07-29T11:30:12.229Z,96477.75
2022-07-29T11:32:38.681Z,96486.75
2022-07-29T11:35:17.601Z,96479.31
2022-07-29T11:37:50.798Z,96484.53
2022-07-29T11:40:21.675Z,96473.69
2022-07-29T11:42:48.331Z,96482.31
2022-07-29T11:45:43.985Z,96484.22
2022-07-29T11:48:29.855Z,96480.13
2022-07-29T11:50:51.113Z,96485.16
2022-07-29T11:53:17.717Z,96484.19
2022-07-29T11:55:51.398Z,96480.88
2022-07-29T11:58:18.328Z,96481.22
2022-07-29T12:00:45.011Z,96486.44
2022-07-29T12:03:11.470Z,96488.94
2022-07-29T12:05:37.924Z,96487.84
2022-07-29T12:08:04.290Z,96495.56
2022-07-29T12:10:32.111Z,96491.47
2022-07-29T12:12:59.876Z,96491.47
2022-07-29T12:15:39.295Z,96499.94
2022-07-29T12:18:12.606Z,96492.41
2022-07-29T12:20:39.145Z,96499.00
2022-07-29T12:23:06.801Z,96503.25
2022-07-29T12:25:33.924Z,96503.75
2022-07-29T12:28:01.017Z,96491.75
2022-07-29T12:30:27.369Z,96503.88
2022-07-29T12:32:53.734Z,96496.16
2022-07-29T12:35:20.099Z,96496.16
2022-07-29T12:37:46.465Z,96490.19
2022-07-29T12:40:12.835Z,96493.03
2022-07-29T12:42:39.201Z,96495.72
2022-07-29T12:45:05.558Z,96499.47
2022-07-29T12:47:31.919Z,96496.97
2022-07-29T12:49:58.286Z,96502.78
2022-07-29T12:52:24.654Z,96505.63
2022-07-29T12:54:51.041Z,96509.84
2022-07-29T12:57:20.117Z,96508.13
2022-07-29T12:59:46.736Z,96508.13
2022-07-29T13:02:13.135Z,96509.03
2022-07-29T13:04:39.525Z,96515.94
2022-07-29T13:07:05.973Z,96513.16
2022-07-29T13:09:32.338Z,96506.56
2022-07-29T13:11:58.840Z,96509.41
2022-07-29T13:14:25.221Z,96520.56
2022-07-29T13:16:51.635Z,96516.34
2022-07-29T13:19:18.029Z,96522.31
2022-07-29T13:21:44.397Z,96526.41
2022-07-29T13:24:10.802Z,96521.69
2022-07-29T13:26:37.187Z,96526.59
2022-07-29T13:29:07.022Z,96532.09
2022-07-29T13:31:33.392Z,96530.53
2022-07-29T13:33:59.743Z,96526.16
2022-07-29T13:36:26.089Z,96529.09
2022-07-29T13:38:52.457Z,96525.78
2022-07-29T13:41:18.821Z,96519.47
2022-07-29T13:43:45.570Z,96524.19
2022-07-29T13:46:16.497Z,96518.84
2022-07-29T13:48:42.878Z,96515.41
2022-07-29T13:51:09.284Z,96515.09
2022-07-29T13:53:35.660Z,96514.81
2022-07-29T13:56:02.029Z,96508.66
2022-07-29T13:58:28.386Z,96505.19
2022-07-29T14:00:54.790Z,96500.16
2022-07-29T14:03:21.171Z,96500.16
2022-07-29T14:05:47.528Z,96492.47
2022-07-29T14:08:13.885Z,96491.34
2022-07-29T14:10:40.271Z,96491.34
2022-07-29T14:13:06.622Z,96489.91
2022-07-29T14:15:51.166Z,96488.03
2022-07-29T14:18:17.522Z,96481.09
2022-07-29T14:20:43.903Z,96489.75
2022-07-29T14:23:10.265Z,96479.03
2022-07-29T14:25:39.362Z,96481.41
2022-07-29T14:28:08.425Z,96478.56
2022-07-29T14:30:34.799Z,96474.94
2022-07-29T14:33:01.153Z,96485.16
2022-07-29T14:35:27.505Z,96486.13
2022-07-29T14:37:53.874Z,96486.75
2022-07-29T14:40:20.246Z,96484.41
2022-07-29T14:42:46.611Z,96488.97
2022-07-29T14:45:12.969Z,96483.94
2022-07-29T14:47:39.344Z,96495.88
2022-07-29T14:50:05.710Z,96489.09
2022-07-29T14:52:32.063Z,96480.16
2022-07-29T14:54:58.430Z,96476.81
2022-07-29T14:57:24.787Z,96479.53
2022-07-29T14:59:51.143Z,96478.91
2022-07-29T15:02:17.528Z,96476.03
2022-07-29T15:04:43.916Z,96474.44
2022-07-29T15:07:10.278Z,96472.25
2022-07-29T15:09:40.323Z,96477.00
2022-07-29T15:12:16.078Z,96472.56
2022-07-29T15:14:42.435Z,96477.31
2022-07-29T15:17:08.881Z,96461.03
2022-07-29T15:19:35.818Z,96461.84
2022-07-29T15:22:02.434Z,96458.38
2022-07-29T15:24:29.042Z,96465.81
2022-07-29T15:26:55.683Z,96454.13
2022-07-29T15:29:22.050Z,96464.88
2022-07-29T15:31:48.494Z,96461.22
2022-07-29T15:34:14.913Z,96455.22
2022-07-29T15:36:56.555Z,96460.28
2022-07-29T15:39:23.006Z,96460.47
2022-07-29T15:41:49.387Z,96453.66
2022-07-29T15:44:15.748Z,96451.78
2022-07-29T15:46:42.112Z,96458.88
2022-07-29T15:49:08.549Z,96450.06
2022-07-29T15:51:34.985Z,96450.81
2022-07-29T15:54:01.350Z,96450.22
2022-07-29T15:56:27.742Z,96453.00
2022-07-29T15:58:54.102Z,96454.31
2022-07-29T16:01:20.515Z,96455.25
2022-07-29T16:03:46.923Z,96459.34
2022-07-29T16:06:13.347Z,96453.66
2022-07-29T16:08:39.698Z,96450.97
2022-07-29T16:11:06.064Z,96450.22
2022-07-29T16:13:32.430Z,96448.47
2022-07-29T16:16:02.072Z,96458.09
2022-07-29T16:18:30.252Z,96448.63
2022-07-29T16:20:57.031Z,96452.72
2022-07-29T16:23:23.394Z,96453.81
2022-07-29T16:25:59.794Z,96450.97
2022-07-29T16:28:26.750Z,96448.28
2022-07-29T16:30:53.119Z,96457.63
2022-07-29T16:33:19.490Z,96456.97
2022-07-29T16:35:45.849Z,96464.38
2022-07-29T16:38:12.207Z,96458.06
2022-07-29T16:40:38.574Z,96455.25
2022-07-29T16:43:04.939Z,96450.81
2022-07-29T16:45:45.817Z,96454.59
2022-07-29T16:48:12.956Z,96454.44
2022-07-29T16:50:40.596Z,96450.06
2022-07-29T16:53:06.983Z,96457.28
2022-07-29T16:55:33.353Z,96457.28
2022-07-29T16:57:59.712Z,96449.88
2022-07-29T17:00:26.069Z,96447.34
2022-07-29T17:02:52.431Z,96455.06
2022-07-29T17:05:18.793Z,96459.16
2022-07-29T17:07:45.157Z,96455.25
2022-07-29T17:10:11.533Z,96454.28
2022-07-29T17:12:37.897Z,96456.81
2022-07-29T17:15:04.253Z,96458.69
2022-07-29T17:17:38.408Z,96453.63
2022-07-29T17:20:05.376Z,96452.06
2022-07-29T17:22:31.757Z,96458.69
2022-07-29T17:24:58.115Z,96456.16
2022-07-29T17:27:24.486Z,96459.97
2022-07-29T17:29:50.879Z,96454.59
2022-07-29T17:32:17.245Z,96466.75
2022-07-29T17:34:43.610Z,96464.22
2022-07-29T17:37:09.964Z,96474.16
2022-07-29T17:39:36.322Z,96475.06
2022-07-29T17:42:02.685Z,96472.25
2022-07-29T17:44:29.041Z,96467.03
2022-07-29T17:46:55.730Z,96474.44
2022-07-29T17:49:22.380Z,96470.06
2022-07-29T17:51:48.777Z,96461.53
2022-07-29T17:54:15.146Z,96467.53
2022-07-29T17:56:41.510Z,96472.13
2022-07-29T17:59:07.877Z,96475.09
2022-07-29T18:01:34.285Z,96472.91
2022-07-29T18:04:00.734Z,96469.13
2022-07-29T18:06:27.154Z,96467.88
2022-07-29T18:08:53.556Z,96470.38
2022-07-29T18:11:19.911Z,96471.63
2022-07-29T18:13:46.279Z,96474.47
2022-07-29T18:16:12.693Z,96476.66
2022-07-29T18:18:39.088Z,96480.44
2022-07-29T18:21:05.461Z,96483.44
2022-07-29T18:23:31.820Z,96484.56
2022-07-29T18:25:58.175Z,96488.03
2022-07-29T18:28:24.523Z,96485.50
2022-07-29T18:30:51.052Z,96485.50
2022-07-29T18:33:22.065Z,96482.84
2022-07-29T18:35:48.826Z,96477.94
2022-07-29T18:38:15.194Z,96481.88
2022-07-29T18:40:41.631Z,96482.84
2022-07-29T18:43:08.011Z,96482.03
2022-07-29T18:45:34.372Z,96484.25
2022-07-29T18:48:01.418Z,96483.94
2022-07-29T18:50:29.564Z,96477.63
2022-07-29T18:52:56.094Z,96485.19
2022-07-29T18:55:22.476Z,96479.84
2022-07-29T18:57:55.430Z,96485.50
2022-07-29T19:00:22.829Z,96488.50
2022-07-29T19:02:49.331Z,96486.75
2022-07-29T19:05:15.781Z,96489.91
2022-07-29T19:07:42.143Z,96498.44
2022-07-29T19:10:08.531Z,96501.91
2022-07-29T19:12:34.959Z,96506.00
2022-07-29T19:15:01.328Z,96512.94
2022-07-29T19:17:27.694Z,96518.47
2022-07-29T19:19:54.068Z,96518.78
2022-07-29T19:22:20.429Z,96519.69
2022-07-29T19:24:46.795Z,96527.91
2022-07-29T19:27:13.148Z,96517.31
2022-07-29T19:29:39.512Z,96522.72
2022-07-29T19:32:05.865Z,96522.25
2022-07-29T19:34:32.214Z,96526.16
2022-07-29T19:36:58.882Z,96537.53
2022-07-29T19:39:31.939Z,96544.13
2022-07-29T19:42:03.536Z,96542.72
2022-07-29T19:44:30.009Z,96539.25
2022-07-29T19:46:56.720Z,96554.84
2022-07-29T19:49:23.328Z,96553.28
2022-07-29T19:51:49.740Z,96567.16
2022-07-29T19:54:16.101Z,96559.25
2022-07-29T19:56:42.464Z,96565.41
2022-07-29T19:59:08.825Z,96573.16
2022-07-29T20:01:35.246Z,96572.50
2022-07-29T20:04:01.659Z,96573.28
2022-07-29T20:06:28.032Z,96576.91
2022-07-29T20:08:58.472Z,96571.59
2022-07-29T20:11:25.169Z,96580.06
2022-07-29T20:13:51.543Z,96580.38
2022-07-29T20:16:17.953Z,96581.78
2022-07-29T20:18:44.335Z,96584.94
2022-07-29T20:21:10.696Z,96581.63
2022-07-29T20:23:37.073Z,96581.94
2022-07-29T20:26:06.086Z,96573.78
2022-07-29T20:28:35.150Z,96578.03
2022-07-29T20:31:01.582Z,96583.22
2022-07-29T20:33:28.015Z,96583.53
2022-07-29T20:35:54.371Z,96584.78
2022-07-29T20:38:20.742Z,96577.69
2022-07-29T20:40:47.106Z,96584.78
2022-07-29T20:43:13.478Z,96581.00
2022-07-29T20:45:39.848Z,96579.75
2022-07-29T20:48:06.203Z,96577.84
2022-07-29T20:50:34.812Z,96572.97
2022-07-29T20:53:01.182Z,96571.41
2022-07-29T20:55:27.565Z,96572.50
2022-07-29T20:57:53.923Z,96571.53
2022-07-29T21:00:20.295Z,96574.53
2022-07-29T21:02:46.721Z,96572.81
2022-07-29T21:05:13.118Z,96573.44
2022-07-29T21:07:39.514Z,96572.66
2022-07-29T21:10:05.896Z,96573.78
2022-07-29T21:12:32.302Z,96571.84
2022-07-29T21:14:58.665Z,96574.69
2022-07-29T21:17:25.043Z,96580.56
2022-07-29T21:19:51.413Z,96573.16
2022-07-29T21:22:17.777Z,96570.13
2022-07-29T21:24:44.144Z,96572.97
2022-07-29T21:27:20.316Z,96570.44
2022-07-29T21:29:47.812Z,96576.28
2022-07-29T21:32:14.206Z,96576.91
2022-07-29T21:34:56.173Z,96578.47
2022-07-29T21:37:22.541Z,96575.78
2022-07-29T21:39:48.910Z,96578.34
2022-07-29T21:42:15.269Z,96585.13
2022-07-29T21:44:41.646Z,96574.69
2022-07-29T21:47:08.013Z,96577.97
2022-07-29T21:49:34.371Z,96579.53
2022-07-29T21:52:00.733Z,96583.50
2022-07-29T21:54:28.144Z,96584.09
2022-07-29T21:56:54.504Z,96579.72
2022-07-29T21:59:20.863Z,96582.22
2022-07-29T22:01:47.256Z,96585.88
2022-07-29T22:04:13.704Z,96580.66
2022-07-29T22:06:40.109Z,96585.53
2022-07-29T22:09:06.468Z,96581.28
2022-07-29T22:11:32.830Z,96576.56
2022-07-29T22:13:59.192Z,96580.34
2022-07-29T22:16:25.593Z,96586.31
2022-07-29T22:18:51.980Z,96589.00
2022-07-29T22:21:18.347Z,96601.78
2022-07-29T22:23:44.700Z,96603.81
2022-07-29T22:26:11.065Z,96601.91
2022-07-29T22:28:37.421Z,96597.66
2022-07-29T22:31:03.851Z,96612.47
2022-07-29T22:33:30.291Z,96600.78
2022-07-29T22:35:56.653Z,96608.88
2022-07-29T22:38:23.022Z,96603.78
2022-07-29T22:40:50.592Z,96604.91
2022-07-29T22:43:17.220Z,96604.41
2022-07-29T22:45:43.625Z,96609.94
2022-07-29T22:48:10.009Z,96612.63
2022-07-29T22:50:36.362Z,96613.72
2022-07-29T22:53:02.726Z,96615.44
2022-07-29T22:55:29.088Z,96614.06
2022-07-29T22:57:55.466Z,96622.22
2022-07-29T23:00:21.831Z,96615.66
2022-07-29T23:02:48.194Z,96624.44
2022-07-29T23:05:14.550Z,96626.50
2022-07-29T23:07:40.914Z,96623.81
2022-07-29T23:10:07.271Z,96630.41
2022-07-29T23:12:33.638Z,96627.59
2022-07-29T23:14:59.996Z,96632.59
2022-07-29T23:17:26.360Z,96630.69
2022-07-29T23:19:52.745Z,96621.69
2022-07-29T23:22:19.109Z,96626.44
2022-07-29T23:24:45.473Z,96624.66
2022-07-29T23:27:11.828Z,96634.84
2022-07-29T23:29:38.189Z,96634.50
2022-07-29T23:32:04.565Z,96634.50
2022-07-29T23:34:30.925Z,96635.25
2022-07-29T23:36:57.692Z,96624.78
2022-07-29T23:39:24.163Z,96631.72
2022-07-29T23:41:50.526Z,96631.13
2022-07-29T23:44:16.884Z,96626.38
2022-07-29T23:46:43.340Z,96629.38
2022-07-29T23:49:09.773Z,96632.06
2022-07-29T23:51:36.256Z,96625.31
2022-07-29T23:54:02.606Z,96622.41
2022-07-29T23:56:28.977Z,96630.13
2022-07-29T23:58:55.354Z,96625.75
